Palmyra, Tennessee
Current Conditions -  °F | °C
As of 11:38 AM on Sunday 23 Nov 2014 (Local Time) from KCKV Reporting Station
Light Rain Light Rain  
Wind Chill: 58°   Ceiling: 1500
Heat Index: 58°   Visibility: 8mi
Dew Point: 54°   Wind: 14mph
Humidity: 87%   Direction: 140°SE
Pressure: 29.64"   Gusts: 23mph
Location:  36.44°N, 87.49°W
Report Text: KCKV 231738Z AUTO 14012G20KT 8SM -RA BKN015 OVC030 14/12 A2964 RMK AO2 RAB32 PRESFR P0000 T01440122 $
Loading
Personal Weather Stations






























Interactive Weather Map New forecast layout! Learn more

10-Day Weather Forecast

Advertisements
Track Severe Weather on mobile